Time;durP1;ratioP1;P1;durP2;ratioP2;P2;SDS_P1;SDS_P2;PMS_P1;PMS_P2;Temp;Humidity;BMP_temperature;BMP_pressure;BME280_temperature;BME280_humidity;BME280_pressure;Samples;Min_cycle;Max_cycle;Signal;HPM_P1;HPM_P2
2022/04/18 00:01:57;;;;;;;6.87;6.27;;;;;;;12.28;36.84;102076.72;5019402;28;20195;-76
2022/04/18 00:04:23;;;;;;;8.07;5.70;;;;;;;11.34;39.33;102079.50;5020199;28;20202;-75
2022/04/18 00:06:48;;;;;;;7.40;6.70;;;;;;;10.23;41.04;102086.53;5018382;28;20203;-75
2022/04/18 00:09:14;;;;;;;7.47;6.80;;;;;;;10.57;40.66;102080.72;5019382;28;20532;-74
2022/04/18 00:11:39;;;;;;;6.93;6.23;;;;;;;10.23;41.31;102081.34;5020225;28;20171;-76
2022/04/18 00:14:05;;;;;;;7.10;6.40;;;;;;;10.51;41.38;102077.91;5019810;28;20529;-78
2022/04/18 00:16:30;;;;;;;8.50;7.20;;;;;;;10.04;42.17;102078.13;5019564;28;20175;-74
2022/04/18 00:18:55;;;;;;;7.80;6.80;;;;;;;10.28;42.14;102075.44;5020248;28;20608;-75
2022/04/18 00:21:21;;;;;;;7.17;6.53;;;;;;;10.60;41.37;102069.50;5018500;28;20253;-72
2022/04/18 00:23:46;;;;;;;6.93;6.23;;;;;;;10.56;41.53;102070.22;5019460;28;20182;-73
2022/04/18 00:26:12;;;;;;;7.67;6.83;;;;;;;10.60;41.43;102069.50;5019935;28;20278;-73
2022/04/18 00:28:38;;;;;;;8.93;7.63;;;;;;;10.20;42.60;102071.69;5018793;28;20174;-73
2022/04/18 00:31:03;;;;;;;8.40;7.33;;;;;;;10.43;42.38;102071.56;5019400;28;20226;-75
2022/04/18 00:33:29;;;;;;;8.60;7.70;;;;;;;10.59;41.82;102071.22;5019635;28;20174;-72
2022/04/18 00:35:55;;;;;;;7.40;6.70;;;;;;;10.48;42.90;102069.13;5019138;28;20182;-73
2022/04/18 00:38:21;;;;;;;7.60;6.87;;;;;;;10.33;42.82;102059.06;5019335;28;20209;-72
2022/04/18 00:40:46;;;;;;;7.80;7.00;;;;;;;10.48;43.70;102062.16;5019578;28;20493;-72
2022/04/18 00:43:12;;;;;;;8.30;6.73;;;;;;;10.54;43.19;102059.75;5019021;28;20213;-74
2022/04/18 00:45:37;;;;;;;9.43;7.50;;;;;;;10.47;43.40;102059.50;5019026;28;20290;-75
2022/04/18 00:48:03;;;;;;;11.13;7.43;;;;;;;10.56;43.71;102050.25;5019570;28;20171;-73
2022/04/18 00:50:33;;;;;;;9.27;8.37;;;;;;;10.54;43.71;102059.75;5019167;28;20471;-73
2022/04/18 00:52:58;;;;;;;8.87;7.30;;;;;;;10.59;43.70;102057.28;5018158;28;20428;-73
2022/04/18 00:55:26;;;;;;;9.17;7.80;;;;;;;10.70;44.26;102057.59;5018833;28;20414;-74
2022/04/18 00:57:53;;;;;;;10.03;7.80;;;;;;;10.54;44.42;102051.03;5019028;28;20556;-75
2022/04/18 01:00:19;;;;;;;8.67;7.77;;;;;;;10.61;44.42;102047.78;5019036;28;20433;-76
2022/04/18 01:02:44;;;;;;;10.30;8.20;;;;;;;10.23;45.22;102050.06;5018821;28;20474;-78
2022/04/18 01:05:10;;;;;;;8.57;7.50;;;;;;;10.51;44.92;102036.19;5018945;28;20626;-76
2022/04/18 01:07:36;;;;;;;8.93;8.03;;;;;;;10.28;45.06;102041.53;5019479;28;20179;-77
2022/04/18 01:10:03;;;;;;;9.40;8.40;;;;;;;10.33;45.81;102040.81;5018843;28;20246;-75
2022/04/18 01:12:28;;;;;;;10.53;9.43;;;;;;;10.29;45.51;102029.38;5018653;28;20253;-76
2022/04/18 01:14:53;;;;;;;9.30;8.40;;;;;;;9.89;46.72;102035.91;5018838;28;20520;-75
2022/04/18 01:17:19;;;;;;;10.50;8.73;;;;;;;10.44;45.67;102021.19;5018516;28;20186;-74
2022/04/18 01:19:45;;;;;;;10.20;8.40;;;;;;;10.48;45.34;102024.78;5018737;28;20170;-75
2022/04/18 01:22:11;;;;;;;10.40;9.30;;;;;;;10.05;46.66;102025.19;5018948;28;20413;-74
2022/04/18 01:30:05;;;;;;;11.77;9.40;;;;;;;10.40;46.22;102017.59;5018777;28;20426;-74
2022/04/18 01:32:30;;;;;;;12.40;9.70;;;;;;;9.87;47.44;102033.25;5018466;28;20521;-73
2022/04/18 01:34:57;;;;;;;10.67;9.20;;;;;;;10.18;46.62;102022.97;5018716;28;20505;-74
2022/04/18 01:37:23;;;;;;;13.30;10.00;;;;;;;10.19;47.51;102016.88;5018494;28;20166;-74
2022/04/18 01:39:48;;;;;;;9.93;8.93;;;;;;;10.25;46.78;102017.09;5033587;28;20413;-74
2022/04/18 01:42:13;;;;;;;10.73;8.80;;;;;;;9.62;47.74;102013.34;5037884;28;20420;-74
2022/04/18 01:44:39;;;;;;;10.00;8.77;;;;;;;9.60;48.69;102013.25;5038053;28;20181;-73
2022/04/18 01:47:05;;;;;;;10.07;9.00;;;;;;;10.04;47.88;102015.59;5038635;28;20193;-74
2022/04/18 01:49:30;;;;;;;10.40;9.07;;;;;;;9.75;48.60;102004.19;5038283;28;20491;-74
2022/04/18 01:51:56;;;;;;;10.60;9.10;;;;;;;9.80;49.00;102007.84;5038037;28;20269;-75
2022/04/18 01:54:22;;;;;;;14.17;9.07;;;;;;;9.72;48.50;102007.56;5038443;28;20173;-74
2022/04/18 01:56:47;;;;;;;11.23;9.67;;;;;;;9.80;49.42;102009.56;5038019;28;20417;-73
2022/04/18 01:59:12;;;;;;;13.83;10.37;;;;;;;9.64;49.81;102016.84;5037935;28;20212;-73
2022/04/18 02:01:38;;;;;;;12.33;10.07;;;;;;;9.94;49.55;102010.91;5038395;28;20190;-73
2022/04/18 02:04:03;;;;;;;13.13;10.80;;;;;;;9.50;49.42;102013.78;5037742;28;20218;-74
2022/04/18 02:06:29;;;;;;;14.50;10.13;;;;;;;9.43;49.42;102007.47;5037638;28;20198;-75
2022/04/18 02:08:54;;;;;;;11.70;10.43;;;;;;;9.38;50.17;102013.38;5038288;28;20428;-75
2022/04/18 02:11:20;;;;;;;12.70;9.77;;;;;;;9.72;49.94;101998.91;5037727;28;20448;-74
2022/04/18 02:13:46;;;;;;;12.60;9.50;;;;;;;9.97;49.21;101999.69;5037836;28;20170;-74
2022/04/18 02:16:11;;;;;;;11.40;9.70;;;;;;;9.77;49.66;102000.81;5038148;28;20466;-73
2022/04/18 02:18:37;;;;;;;12.50;10.20;;;;;;;9.45;49.98;102004.94;5037720;28;20186;-74
2022/04/18 02:21:02;;;;;;;13.07;10.30;;;;;;;9.47;50.76;101991.97;5037738;28;20228;-74
2022/04/18 02:23:27;;;;;;;12.10;10.80;;;;;;;9.55;50.17;101987.91;5038391;28;20405;-74
2022/04/18 02:25:53;;;;;;;10.50;9.47;;;;;;;9.44;50.85;101978.03;5037658;28;20245;-73
2022/04/18 02:28:18;;;;;;;11.00;10.00;;;;;;;9.42;51.40;101976.19;5038458;28;20568;-74
2022/04/18 02:30:43;;;;;;;16.33;10.60;;;;;;;9.62;50.92;101971.66;5041937;28;20254;-73
2022/04/18 02:33:09;;;;;;;11.43;9.90;;;;;;;9.56;50.79;101967.13;5041439;28;20547;-73
2022/04/18 02:35:34;;;;;;;10.63;9.53;;;;;;;9.24;51.39;101966.00;5041410;28;20166;-74
2022/04/18 02:38:00;;;;;;;11.47;10.27;;;;;;;9.60;50.58;101955.09;5041926;28;20170;-74
2022/04/18 02:40:25;;;;;;;10.33;9.33;;;;;;;9.07;51.32;101968.91;5041566;28;20577;-75
2022/04/18 02:42:50;;;;;;;13.00;9.53;;;;;;;9.06;51.41;101961.06;5041340;28;20174;-73
2022/04/18 02:45:19;;;;;;;11.07;9.97;;;;;;;9.28;51.35;101957.47;5041539;28;20209;-74
2022/04/18 02:47:46;;;;;;;11.13;9.73;;;;;;;9.23;51.35;101966.88;5041092;28;20590;-74
2022/04/18 02:50:11;;;;;;;9.70;8.60;;;;;;;8.92;51.83;101960.56;5040473;28;20505;-73
2022/04/18 02:52:37;;;;;;;11.40;9.33;;;;;;;8.99;51.92;101959.97;5041448;28;20460;-73
2022/04/18 02:55:03;;;;;;;10.80;9.70;;;;;;;9.20;51.34;101969.34;5041366;28;20166;-74
2022/04/18 02:57:29;;;;;;;10.87;9.47;;;;;;;9.34;50.85;101957.72;5041018;28;20280;-74
2022/04/18 02:59:54;;;;;;;10.90;9.77;;;;;;;9.11;51.85;101959.50;5041372;28;20737;-74
2022/04/18 03:02:19;;;;;;;10.90;9.57;;;;;;;9.35;51.20;101959.50;5040738;28;20241;-74
2022/04/18 03:04:44;;;;;;;11.37;9.93;;;;;;;9.34;51.47;101949.03;5040788;28;20174;-73
2022/04/18 03:07:10;;;;;;;11.47;10.37;;;;;;;9.16;51.81;101951.84;5041119;28;20170;-74
2022/04/18 03:09:35;;;;;;;13.00;10.43;;;;;;;9.54;50.65;101945.38;5041045;28;20532;-73
2022/04/18 03:12:02;;;;;;;11.33;10.20;;;;;;;9.30;51.65;101950.63;5040684;28;20177;-73
2022/04/18 03:14:28;;;;;;;12.43;11.13;;;;;;;9.46;51.82;101938.13;5041296;28;20538;-74
2022/04/18 03:16:54;;;;;;;13.13;10.77;;;;;;;9.30;51.91;101942.81;5040676;28;20794;-73
2022/04/18 03:19:19;;;;;;;11.83;10.47;;;;;;;9.17;52.55;101940.63;5039927;28;20417;-74
2022/04/18 03:21:45;;;;;;;13.13;11.50;;;;;;;9.33;52.79;101939.44;5040836;28;20493;-74
2022/04/18 03:24:10;;;;;;;13.43;11.83;;;;;;;9.34;52.72;101931.69;5040734;28;20188;-73
2022/04/18 03:26:35;;;;;;;13.40;11.30;;;;;;;9.34;53.09;101933.41;5040293;28;20511;-72
2022/04/18 03:29:01;;;;;;;13.73;11.23;;;;;;;9.24;53.46;101929.59;5040934;28;20180;-73
2022/04/18 03:31:26;;;;;;;11.63;10.43;;;;;;;9.12;53.84;101927.47;5040316;28;20174;-73
2022/04/18 03:33:51;;;;;;;10.70;9.67;;;;;;;8.95;54.48;101933.81;5040252;28;20244;-74
2022/04/18 03:41:44;;;;;;;13.13;11.00;;;;;;;8.90;55.76;101938.81;5039517;28;20444;-75
2022/04/18 03:44:10;;;;;;;10.97;9.83;;;;;;;9.10;54.82;101939.53;5040191;28;20453;-75
2022/04/18 03:46:35;;;;;;;11.70;10.50;;;;;;;9.00;55.26;101938.31;5040106;28;20269;-74
2022/04/18 03:49:00;;;;;;;12.17;10.90;;;;;;;8.74;56.00;101937.38;5040556;28;20174;-74
2022/04/18 03:51:26;;;;;;;11.57;10.43;;;;;;;8.99;55.18;101931.34;5040103;28;20174;-74
2022/04/18 03:53:51;;;;;;;12.73;11.43;;;;;;;8.73;56.04;101935.63;5040232;28;20174;-75
2022/04/18 03:56:16;;;;;;;12.90;10.90;;;;;;;8.98;55.27;101929.56;5040736;28;20223;-76
2022/04/18 03:58:42;;;;;;;12.10;10.87;;;;;;;8.88;55.69;101919.69;5040194;28;20444;-75
2022/04/18 04:01:07;;;;;;;12.23;10.97;;;;;;;8.50;56.64;101926.97;5039964;28;20237;-75
2022/04/18 04:03:32;;;;;;;11.73;10.57;;;;;;;8.58;56.50;101929.03;5039925;28;20226;-75
2022/04/18 04:05:58;;;;;;;12.80;10.90;;;;;;;9.02;55.62;101926.25;5039906;28;20202;-74
2022/04/18 04:08:23;;;;;;;15.03;11.13;;;;;;;8.98;55.44;101915.69;5040286;28;20174;-75
2022/04/18 04:10:54;;;;;;;12.00;10.73;;;;;;;8.76;55.91;101918.41;5039863;28;20441;-75
2022/04/18 04:13:20;;;;;;;14.33;11.77;;;;;;;8.99;55.08;101910.53;5039806;28;20540;-74
2022/04/18 04:15:45;;;;;;;12.63;11.13;;;;;;;8.91;55.35;101918.06;5040285;28;20415;-75
2022/04/18 04:18:11;;;;;;;13.03;10.47;;;;;;;9.10;55.03;101909.19;5039426;28;20188;-76
2022/04/18 04:20:36;;;;;;;12.70;11.40;;;;;;;8.61;56.45;101915.25;5039774;28;20178;-75
2022/04/18 04:23:01;;;;;;;12.90;11.17;;;;;;;8.64;56.03;101912.75;5040207;28;20174;-75
2022/04/18 04:25:27;;;;;;;13.90;10.53;;;;;;;8.96;54.30;101894.84;5039324;28;20206;-74
2022/04/18 04:27:52;;;;;;;13.40;10.20;;;;;;;8.30;55.06;101897.63;5039328;28;20182;-74
2022/04/18 04:30:17;;;;;;;11.90;10.70;;;;;;;8.52;54.65;101904.53;5039977;28;20216;-75
2022/04/18 04:32:43;;;;;;;11.23;10.10;;;;;;;8.85;53.84;101891.84;5039208;28;20178;-75
2022/04/18 04:35:08;;;;;;;10.87;9.70;;;;;;;8.71;54.14;101898.28;5039281;28;20631;-75
2022/04/18 04:37:33;;;;;;;12.37;10.30;;;;;;;8.96;53.63;101893.94;5039776;28;20174;-76
2022/04/18 04:39:59;;;;;;;11.80;10.60;;;;;;;8.89;53.50;101893.72;5039187;28;20426;-75
2022/04/18 04:42:24;;;;;;;12.17;10.90;;;;;;;8.75;53.77;101893.25;5039143;28;20171;-74
2022/04/18 04:44:49;;;;;;;11.97;10.30;;;;;;;8.72;53.39;101887.91;5039440;28;20178;-76
2022/04/18 04:47:15;;;;;;;14.33;10.60;;;;;;;9.12;53.11;101884.94;5038994;28;20293;-75
2022/04/18 04:49:40;;;;;;;12.30;10.00;;;;;;;8.97;53.29;101886.22;5039156;28;20178;-73
2022/04/18 04:52:05;;;;;;;12.60;10.00;;;;;;;9.14;52.76;101878.09;5038234;28;20285;-75
2022/04/18 04:54:31;;;;;;;11.37;10.17;;;;;;;9.05;53.09;101878.66;5038637;28;20197;-73
2022/04/18 04:56:57;;;;;;;12.63;10.23;;;;;;;8.57;54.30;101882.19;5038603;28;20240;-72
2022/04/18 04:59:22;;;;;;;11.83;10.63;;;;;;;8.83;54.42;101879.63;5039399;28;20401;-72
2022/04/18 05:01:47;;;;;;;12.50;10.80;;;;;;;8.49;55.11;101888.81;5038591;28;20244;-72
2022/04/18 05:04:13;;;;;;;13.03;10.47;;;;;;;9.00;53.79;101886.31;5038703;28;20312;-73
2022/04/18 05:06:38;;;;;;;11.80;10.60;;;;;;;8.93;53.88;101889.53;5039029;28;20248;-74
2022/04/18 05:09:03;;;;;;;11.63;10.40;;;;;;;9.17;53.59;101883.38;5038751;28;20189;-72
2022/04/18 05:11:29;;;;;;;12.30;11.00;;;;;;;9.32;52.95;101885.63;5038556;28;20181;-72
2022/04/18 05:13:54;;;;;;;14.20;10.23;;;;;;;9.21;53.34;101893.94;5039020;28;20178;-72
2022/04/18 05:16:20;;;;;;;12.20;10.97;;;;;;;9.24;53.69;101890.56;5038651;28;20205;-72
2022/04/18 05:18:45;;;;;;;12.83;11.17;;;;;;;9.20;53.32;101891.28;5038818;28;20182;-75
2022/04/18 05:21:11;;;;;;;13.13;11.67;;;;;;;9.10;53.68;101893.56;5038913;28;20177;-76
2022/04/18 05:23:37;;;;;;;14.90;13.40;;;;;;;9.10;54.27;101893.56;5038495;28;20193;-75
2022/04/18 05:26:02;;;;;;;12.97;11.67;;;;;;;9.31;53.90;101884.75;5038428;28;20210;-76
2022/04/18 05:28:27;;;;;;;14.83;12.00;;;;;;;8.97;54.99;101891.41;5038965;28;20785;-74
2022/04/18 05:30:53;;;;;;;13.60;11.27;;;;;;;9.48;53.65;101894.81;5037912;28;20193;-72
2022/04/18 05:33:21;;;;;;;13.67;12.17;;;;;;;9.75;53.62;101889.63;5038366;28;20170;-73
2022/04/18 05:35:46;;;;;;;14.10;11.50;;;;;;;9.35;54.61;101885.72;5038602;28;20173;-72
2022/04/18 05:38:11;;;;;;;13.70;11.30;;;;;;;9.51;54.14;101887.09;5038243;28;20425;-72
2022/04/18 05:40:37;;;;;;;12.97;11.50;;;;;;;9.27;54.93;101891.56;5038507;28;20516;-73
2022/04/18 05:43:02;;;;;;;13.53;11.40;;;;;;;10.82;51.06;101882.31;5038349;28;20435;-72
2022/04/18 05:45:28;;;;;;;12.07;10.87;;;;;;;13.58;44.41;101869.88;5038046;28;20236;-75
2022/04/18 05:47:53;;;;;;;11.97;10.50;;;;;;;15.45;39.45;101856.31;5038371;28;20174;-74
2022/04/18 05:50:19;;;;;;;11.43;10.27;;;;;;;15.01;40.11;101864.69;5038674;28;20241;-75
2022/04/18 05:52:45;;;;;;;15.83;10.53;;;;;;;15.63;38.17;101866.06;5037944;28;20174;-76
2022/04/18 05:55:11;;;;;;;12.30;11.10;;;;;;;15.37;38.00;101865.88;5037403;28;20409;-75
2022/04/18 05:57:36;;;;;;;12.40;11.20;;;;;;;17.02;35.36;101855.22;5038406;28;20470;-75
2022/04/18 06:00:03;;;;;;;11.77;10.67;;;;;;;17.02;35.18;101860.50;5038137;28;20227;-75
2022/04/18 06:02:28;;;;;;;11.67;10.23;;;;;;;17.52;33.68;101858.72;5034734;28;20226;-74
2022/04/18 06:04:54;;;;;;;11.90;10.73;;;;;;;17.94;33.12;101859.56;5041318;28;20417;-75
2022/04/18 06:07:19;;;;;;;10.67;9.67;;;;;;;18.09;32.80;101863.00;5041852;28;20204;-74
2022/04/18 06:09:44;;;;;;;11.37;10.40;;;;;;;18.52;32.07;101858.44;5041967;28;20181;-74
2022/04/18 06:12:10;;;;;;;12.17;11.07;;;;;;;18.18;32.07;101863.88;5042645;28;20213;-74
2022/04/18 06:14:35;;;;;;;10.67;9.77;;;;;;;18.58;31.72;101859.25;5041876;28;20307;-75
2022/04/18 06:17:00;;;;;;;11.20;10.20;;;;;;;18.70;31.44;101861.84;5041793;28;20162;-74
2022/04/18 06:19:25;;;;;;;11.37;10.33;;;;;;;19.58;30.38;101868.22;5042263;28;20442;-74
2022/04/18 06:21:52;;;;;;;11.23;10.10;;;;;;;19.71;30.24;101869.84;5041604;28;20166;-75
2022/04/18 06:24:18;;;;;;;11.20;10.30;;;;;;;19.60;30.57;101871.75;5041689;28;20163;-75
2022/04/18 06:26:43;;;;;;;11.27;10.27;;;;;;;20.01;29.73;101873.09;5042271;28;20459;-75
2022/04/18 06:29:09;;;;;;;11.27;10.27;;;;;;;20.05;29.60;101866.84;5032060;28;20175;-74
2022/04/18 06:31:34;;;;;;;11.53;10.43;;;;;;;20.21;29.31;101864.03;5009354;28;20438;-75
2022/04/18 06:33:59;;;;;;;11.60;10.60;;;;;;;20.57;28.67;101862.66;5002327;28;20167;-75
2022/04/18 06:36:28;;;;;;;11.03;10.13;;;;;;;19.92;29.17;101873.22;5020621;28;20179;-77
2022/04/18 06:38:53;;;;;;;11.40;10.33;;;;;;;19.40;29.83;101862.22;5021732;28;20171;-77
2022/04/18 06:41:21;;;;;;;11.13;10.13;;;;;;;20.59;28.76;101866.16;5023621;28;20746;-77
2022/04/18 06:43:46;;;;;;;11.13;10.17;;;;;;;20.25;28.30;101873.69;5023260;28;20193;-76
2022/04/18 06:46:12;;;;;;;11.90;10.80;;;;;;;20.38;29.07;101869.09;5021655;28;20465;-78
2022/04/18 06:48:38;;;;;;;11.03;10.13;;;;;;;20.59;29.06;101873.25;5020525;28;20182;-76
2022/04/18 06:51:03;;;;;;;12.17;10.90;;;;;;;17.99;32.02;101878.88;5020564;28;20175;-76
2022/04/18 06:53:28;;;;;;;11.43;10.53;;;;;;;18.22;32.56;101874.41;5021378;28;20281;-76
2022/04/18 06:58:38;;;;;;;10.97;9.93;;;;;;;18.75;30.75;101867.97;5021454;28;20193;-76
2022/04/18 07:01:04;;;;;;;11.03;10.00;;;;;;;20.69;28.31;101873.13;5020975;28;20441;-74
2022/04/18 07:03:29;;;;;;;10.97;9.97;;;;;;;20.36;28.82;101866.47;5020445;28;20642;-73
2022/04/18 07:05:54;;;;;;;10.80;9.90;;;;;;;21.03;27.33;101874.38;5020310;28;20218;-75
2022/04/18 07:08:20;;;;;;;11.67;10.57;;;;;;;20.12;28.03;101880.91;5021418;28;20478;-73
2022/04/18 07:10:45;;;;;;;10.47;9.57;;;;;;;20.32;28.65;101872.72;5020505;28;20182;-76
2022/04/18 07:13:11;;;;;;;10.67;9.67;;;;;;;20.48;28.09;101874.25;5020862;28;20257;-75
2022/04/18 07:15:36;;;;;;;12.23;7.37;;;;;;;23.19;28.91;101862.09;5020360;28;20167;-63
2022/04/18 07:18:02;;;;;;;9.90;9.10;;;;;;;22.55;27.67;101867.13;5020889;28;20575;-63
2022/04/18 07:20:28;;;;;;;11.07;9.97;;;;;;;20.76;27.64;101870.38;5019186;28;20278;-69
2022/04/18 07:22:54;;;;;;;10.83;9.93;;;;;;;19.14;29.71;101875.66;5019892;28;20175;-77
2022/04/18 07:25:19;;;;;;;11.23;10.23;;;;;;;16.94;32.93;101885.94;5022991;28;20458;-76
2022/04/18 07:27:45;;;;;;;10.93;10.00;;;;;;;20.00;28.76;101874.00;5022571;28;20461;-76
2022/04/18 07:30:10;;;;;;;11.13;10.17;;;;;;;19.55;28.37;101874.41;5026731;28;20203;-77
2022/04/18 07:32:41;;;;;;;11.37;10.37;;;;;;;20.18;28.05;101865.81;5023313;28;20182;-75
2022/04/18 07:35:07;;;;;;;11.50;10.50;;;;;;;17.90;31.08;101870.97;5034020;28;20186;-74
2022/04/18 07:37:33;;;;;;;11.63;10.43;;;;;;;20.05;27.99;101872.16;5033764;28;20418;-76
2022/04/18 07:39:58;;;;;;;11.30;10.30;;;;;;;20.74;27.51;101861.56;5020963;28;20433;-76
2022/04/18 07:42:24;;;;;;;10.43;9.53;;;;;;;19.84;28.46;101871.50;5032837;28;20552;-76
2022/04/18 07:44:49;;;;;;;11.40;10.30;;;;;;;20.84;26.97;101864.06;5036027;28;20179;-73
2022/04/18 07:47:14;;;;;;;11.40;10.40;;;;;;;17.64;31.60;101881.56;5022478;28;20202;-75
2022/04/18 07:49:39;;;;;;;12.53;11.23;;;;;;;18.68;30.37;101880.31;5021955;28;20547;-75
2022/04/18 07:52:06;;;;;;;11.20;10.20;;;;;;;20.25;29.27;101873.69;5022725;28;20210;-75
2022/04/18 07:54:31;;;;;;;10.47;9.50;;;;;;;20.99;27.64;101865.59;5034159;28;20476;-75
2022/04/18 07:56:56;;;;;;;11.20;10.20;;;;;;;20.45;28.12;101862.84;5022337;28;20448;-75
2022/04/18 07:59:22;;;;;;;11.57;10.57;;;;;;;20.22;27.68;101865.78;5039355;28;20174;-73
2022/04/18 08:01:47;;;;;;;12.03;11.03;;;;;;;19.28;29.36;101872.91;5030757;28;20444;-74
2022/04/18 08:04:12;;;;;;;10.90;9.93;;;;;;;20.24;28.82;101859.59;5031041;28;20249;-76
2022/04/18 08:06:38;;;;;;;11.67;10.67;;;;;;;21.03;28.11;101863.78;5024296;28;20273;-76
2022/04/18 08:09:03;;;;;;;11.73;10.50;;;;;;;21.76;26.11;101857.22;5032431;28;20178;-74
2022/04/18 08:11:28;;;;;;;10.90;10.00;;;;;;;19.66;29.55;101861.97;5023738;28;20210;-75
2022/04/18 08:13:54;;;;;;;11.50;10.50;;;;;;;20.37;28.49;101860.28;5018613;28;20170;-76
2022/04/18 08:16:19;;;;;;;10.90;9.90;;;;;;;20.35;28.15;101865.59;5035830;28;20261;-78
2022/04/18 08:18:45;;;;;;;11.20;10.27;;;;;;;19.60;29.33;101867.31;5024134;28;20203;-73
2022/04/18 08:21:15;;;;;;;11.57;10.30;;;;;;;20.33;29.04;101855.94;5035780;28;20172;-72
2022/04/18 08:23:45;;;;;;;11.20;10.20;;;;;;;20.05;28.64;101858.91;5026309;28;20182;-72
2022/04/18 08:26:10;;;;;;;11.83;10.83;;;;;;;21.76;27.15;101855.44;5021715;28;20481;-74
2022/04/18 08:28:35;;;;;;;11.30;10.20;;;;;;;23.09;24.84;101855.22;5019510;28;20831;-75
2022/04/18 08:31:01;;;;;;;10.97;10.07;;;;;;;19.80;28.95;101867.16;5020137;28;20185;-73
2022/04/18 08:33:29;;;;;;;11.77;9.57;;;;;;;20.69;27.91;101865.16;5019879;28;20198;-74
2022/04/18 08:35:54;;;;;;;10.47;9.47;;;;;;;21.23;27.95;101847.53;5028037;28;20174;-76
2022/04/18 08:38:19;;;;;;;10.00;9.00;;;;;;;22.35;26.41;101863.13;5025500;28;20413;-79
2022/04/18 08:40:48;;;;;;;11.20;10.20;;;;;;;21.64;27.04;101858.34;5017883;28;20178;-75
2022/04/18 08:43:14;;;;;;;11.27;10.17;;;;;;;19.56;29.08;101870.00;5017795;28;20186;-77
2022/04/18 08:45:39;;;;;;;10.77;9.77;;;;;;;19.60;29.40;101866.44;5032645;28;20464;-77
2022/04/18 08:53:34;;;;;;;10.70;9.70;;;;;;;20.15;28.00;101855.28;5020035;28;20519;-75
2022/04/18 08:56:00;;;;;;;10.37;9.47;;;;;;;22.74;25.43;101837.47;5017251;28;20468;-76
2022/04/18 08:58:26;;;;;;;10.50;9.60;;;;;;;22.95;24.60;101849.34;5025435;28;20205;-74
2022/04/18 09:00:53;;;;;;;9.67;8.77;;;;;;;22.44;25.87;101845.25;5026144;28;20201;-74
2022/04/18 09:03:18;;;;;;;10.37;9.40;;;;;;;20.72;27.36;101844.84;5020852;28;20464;-76
2022/04/18 09:05:44;;;;;;;9.77;8.97;;;;;;;19.14;29.71;101850.09;5025751;28;20462;-75
2022/04/18 09:08:10;;;;;;;11.17;9.70;;;;;;;21.67;27.78;101845.00;5021161;28;20490;-76
2022/04/18 09:10:36;;;;;;;10.07;9.17;;;;;;;21.30;26.16;101840.34;5037207;28;20214;-74
2022/04/18 09:13:12;;;;;;;10.50;9.60;;;;;;;21.57;26.61;101840.75;5032640;28;20175;-77
2022/04/18 09:15:43;;;;;;;10.40;9.50;;;;;;;23.74;24.33;101828.72;5019761;28;20461;-75
2022/04/18 09:18:17;;;;;;;10.33;9.40;;;;;;;21.88;25.95;101841.06;5020896;28;20675;-74
2022/04/18 09:20:53;;;;;;;10.43;9.53;;;;;;;24.01;23.50;101819.06;5020902;28;20417;-74
2022/04/18 09:23:27;;;;;;;10.63;9.63;;;;;;;23.16;24.44;101824.03;5017892;28;20464;-77
2022/04/18 09:25:53;;;;;;;10.20;9.20;;;;;;;21.02;26.45;101816.94;5030625;28;20567;-75
2022/04/18 09:28:22;;;;;;;10.47;9.57;;;;;;;21.42;27.07;101826.88;5025228;28;20508;-76
2022/04/18 09:30:58;;;;;;;10.30;9.30;;;;;;;22.31;25.74;101828.66;5017660;28;20460;-76
2022/04/18 09:33:27;;;;;;;9.37;8.57;;;;;;;22.12;26.07;101826.41;5020835;28;20421;-76
2022/04/18 09:35:53;;;;;;;10.73;9.87;;;;;;;23.57;23.93;101813.19;5037000;28;20424;-75
2022/04/18 09:38:18;;;;;;;9.83;8.83;;;;;;;21.95;25.74;101818.78;5022523;28;20689;-76
2022/04/18 09:40:44;;;;;;;10.20;9.30;;;;;;;20.55;27.84;101815.91;5022490;28;20254;-75
2022/04/18 09:43:09;;;;;;;10.10;9.20;;;;;;;22.74;25.03;101811.75;5037100;28;20174;-75
2022/04/18 09:45:37;;;;;;;12.03;10.83;;;;;;;21.46;26.04;101817.06;5030951;28;20249;-76
2022/04/18 09:48:02;;;;;;;9.90;9.00;;;;;;;23.13;24.62;101803.72;5020968;28;20485;-76
2022/04/18 09:53:19;;;;;;;10.53;9.63;;;;;;;22.58;24.38;101794.41;5025803;28;20189;-73
2022/04/18 09:55:55;;;;;;;9.53;8.73;;;;;;;23.29;23.80;101796.19;5026416;28;20503;-76
2022/04/18 09:58:21;;;;;;;10.40;9.50;;;;;;;23.62;23.78;101800.63;5016841;28;20425;-76
2022/04/18 10:00:47;;;;;;;10.40;9.40;;;;;;;22.16;25.57;101793.56;5024995;28;20442;-76
2022/04/18 10:03:13;;;;;;;10.63;9.73;;;;;;;21.97;25.66;101797.50;5028382;28;20468;-76
2022/04/18 10:05:40;;;;;;;10.37;9.50;;;;;;;21.29;25.77;101797.03;5016267;28;20480;-76
2022/04/18 10:08:05;;;;;;;10.50;9.60;;;;;;;23.36;23.70;101789.78;5023816;28;20210;-73
2022/04/18 10:10:35;;;;;;;9.50;8.50;;;;;;;21.25;25.53;101789.16;5028712;28;20752;-63
2022/04/18 10:13:04;;;;;;;9.23;8.50;;;;;;;22.99;22.93;101779.25;5028762;28;20568;-78
2022/04/18 10:15:30;;;;;;;9.23;8.43;;;;;;;18.87;28.32;101785.09;5023942;28;20515;-76
2022/04/18 10:17:56;;;;;;;9.20;8.40;;;;;;;21.63;25.77;101782.28;5020520;28;20510;-75
2022/04/18 10:20:37;;;;;;;9.70;8.90;;;;;;;21.65;25.49;101769.84;5032323;28;20185;-74
2022/04/18 10:23:42;;;;;;;10.20;9.37;;;;;;;20.49;26.56;101772.69;5020754;28;20433;-73
2022/04/18 10:26:39;;;;;;;9.73;8.83;;;;;;;23.01;23.51;101780.06;5019724;28;20527;-75
2022/04/18 10:29:10;;;;;;;9.70;8.70;;;;;;;23.08;23.70;101770.13;5017106;28;20484;-73
2022/04/18 10:31:40;;;;;;;10.57;9.53;;;;;;;20.31;26.09;101772.97;5016191;28;20430;-76
2022/04/18 10:34:06;;;;;;;9.20;8.40;;;;;;;22.81;24.28;101767.28;5014162;28;20428;-76
2022/04/18 10:36:33;;;;;;;9.70;8.70;;;;;;;22.36;24.65;101761.25;5017598;28;20757;-75
2022/04/18 10:39:04;;;;;;;9.33;8.50;;;;;;;22.28;24.37;101757.88;5006121;28;20498;-76
2022/04/18 10:41:36;;;;;;;10.97;8.83;;;;;;;19.43;27.77;101761.72;4998208;28;20418;-75
2022/04/18 10:44:05;;;;;;;9.83;9.00;;;;;;;21.99;25.65;101758.53;4998206;28;20485;-72
2022/04/18 10:46:31;;;;;;;9.60;8.60;;;;;;;22.41;25.29;101750.53;4997058;28;20462;-74
2022/04/18 10:49:01;;;;;;;9.47;8.57;;;;;;;19.49;27.99;101760.75;5002030;28;20479;-73
2022/04/18 10:51:33;;;;;;;9.23;8.50;;;;;;;22.05;25.59;101755.72;5021168;28;20191;-72
2022/04/18 10:54:14;;;;;;;9.00;8.27;;;;;;;23.20;23.60;101751.22;5021454;28;20425;-74
2022/04/18 10:57:11;;;;;;;9.07;8.30;;;;;;;20.14;27.51;101747.63;5030108;28;20532;-74
2022/04/18 10:59:42;;;;;;;10.00;9.20;;;;;;;18.53;29.82;101764.22;5008715;28;20474;-72
2022/04/18 11:02:08;;;;;;;10.53;9.43;;;;;;;19.28;29.63;101752.19;5029755;28;20493;-73
2022/04/18 11:04:39;;;;;;;9.80;8.90;;;;;;;20.37;27.02;101743.75;5036850;28;20471;-72
2022/04/18 11:07:07;;;;;;;9.37;8.47;;;;;;;22.08;25.05;101737.06;5029858;28;20233;-71
2022/04/18 11:09:36;;;;;;;9.23;8.53;;;;;;;21.84;25.66;101743.81;5030101;28;20842;-75
2022/04/18 11:12:12;;;;;;;9.10;8.30;;;;;;;22.06;25.01;101733.59;5015908;28;20769;-76
2022/04/18 11:14:37;;;;;;;9.03;8.23;;;;;;;22.05;24.63;101723.88;5005300;28;20429;-76
2022/04/18 11:17:03;;;;;;;8.70;7.90;;;;;;;21.99;25.60;101732.00;5020654;28;20680;-76
2022/04/18 11:19:30;;;;;;;10.03;8.73;;;;;;;22.62;24.11;101737.63;5008145;28;20187;-73
2022/04/18 11:21:56;;;;;;;8.93;8.23;;;;;;;21.59;25.34;101733.69;5000678;28;20250;-74
2022/04/18 11:24:35;;;;;;;9.33;8.60;;;;;;;18.59;29.24;101744.81;5017097;28;20876;-75
2022/04/18 11:27:01;;;;;;;9.90;9.00;;;;;;;21.29;25.68;101737.81;5020665;28;20779;-75
2022/04/18 11:29:27;;;;;;;9.10;8.30;;;;;;;22.67;24.11;101714.47;5017851;28;20584;-76
2022/04/18 11:31:52;;;;;;;9.30;8.50;;;;;;;22.04;24.86;101716.81;5018251;28;20225;-76
2022/04/18 11:34:18;;;;;;;9.50;8.70;;;;;;;21.24;25.82;101721.09;5018590;28;20265;-76
2022/04/18 11:36:43;;;;;;;9.70;8.80;;;;;;;21.94;25.00;101710.84;5019328;28;20179;-77
2022/04/18 11:39:10;;;;;;;9.27;8.47;;;;;;;22.81;23.98;101709.69;5019741;28;20167;-78